createdAt,value
2023-04-20T00:01:01.434Z,57.80
2023-04-20T00:02:04.159Z,57.80
2023-04-20T00:03:07.782Z,57.90
2023-04-20T00:04:10.260Z,58.00
2023-04-20T00:05:13.954Z,58.10
2023-04-20T00:06:17.997Z,58.20
2023-04-20T00:07:21.528Z,58.20
2023-04-20T00:08:26.231Z,58.10
2023-04-20T00:09:28.689Z,58.20
2023-04-20T00:10:32.146Z,58.30
2023-04-20T00:11:34.600Z,58.30
2023-04-20T00:12:38.105Z,58.40
2023-04-20T00:13:40.667Z,58.20
2023-04-20T00:14:43.940Z,58.30
2023-04-20T00:15:46.443Z,58.50
2023-04-20T00:16:50.274Z,58.50
2023-04-20T00:17:53.697Z,58.40
2023-04-20T00:18:57.514Z,58.50
2023-04-20T00:19:59.947Z,58.50
2023-04-20T00:21:03.373Z,58.50
2023-04-20T00:22:05.830Z,58.50
2023-04-20T00:23:09.354Z,58.50
2023-04-20T00:24:13.102Z,58.50
2023-04-20T00:25:16.586Z,58.50
2023-04-20T00:26:20.899Z,58.50
2023-04-20T00:27:27.586Z,58.50
2023-04-20T00:28:30.363Z,58.40
2023-04-20T00:29:34.107Z,58.30
2023-04-20T00:30:36.798Z,58.40
2023-04-20T00:31:41.306Z,58.50
2023-04-20T00:32:43.783Z,58.50
2023-04-20T00:33:47.273Z,58.50
2023-04-20T00:34:49.660Z,58.50
2023-04-20T00:35:54.058Z,58.60
2023-04-20T00:36:59.351Z,58.60
2023-04-20T00:38:03.010Z,58.70
2023-04-20T00:39:05.901Z,58.80
2023-04-20T00:40:11.885Z,58.80
2023-04-20T00:41:14.377Z,58.80
2023-04-20T00:42:17.812Z,58.80
2023-04-20T00:43:22.017Z,58.80
2023-04-20T00:44:27.911Z,58.80
2023-04-20T00:45:30.287Z,58.80
2023-04-20T00:46:33.787Z,58.80
2023-04-20T00:47:36.360Z,58.80
2023-04-20T00:48:39.801Z,58.90
2023-04-20T00:49:42.386Z,58.90
2023-04-20T00:50:47.926Z,59.00
2023-04-20T00:51:50.625Z,59.00
2023-04-20T00:52:54.251Z,59.10
2023-04-20T00:53:57.095Z,59.20
2023-04-20T00:55:03.298Z,59.40
2023-04-20T00:56:08.358Z,59.50
2023-04-20T00:57:14.492Z,59.60
2023-04-20T00:58:16.906Z,59.60
2023-04-20T00:59:20.704Z,59.70
2023-04-20T01:00:23.428Z,59.90
2023-04-20T01:01:26.888Z,60.00
2023-04-20T01:02:29.428Z,60.00
2023-04-20T01:03:33.327Z,60.10
2023-04-20T01:04:36.743Z,60.30
2023-04-20T01:05:40.660Z,60.40
2023-04-20T01:06:43.173Z,60.50
2023-04-20T01:07:46.805Z,60.60
2023-04-20T01:08:52.051Z,60.70
2023-04-20T01:09:55.621Z,60.80
2023-04-20T01:10:58.200Z,60.80
2023-04-20T01:12:03.186Z,60.90
2023-04-20T01:13:05.608Z,60.90
2023-04-20T01:14:10.299Z,61.00
2023-04-20T01:15:13.907Z,61.20
2023-04-20T01:16:17.712Z,61.20
2023-04-20T01:17:22.291Z,61.30
2023-04-20T01:18:25.725Z,61.60
2023-04-20T01:19:28.215Z,61.80
2023-04-20T01:20:33.247Z,61.80
2023-04-20T01:21:36.505Z,61.90
2023-04-20T01:22:47.192Z,62.00
2023-04-20T01:23:50.026Z,62.20
2023-04-20T01:24:53.813Z,62.30
2023-04-20T01:25:56.228Z,62.40
2023-04-20T01:26:59.612Z,62.50
2023-04-20T01:28:04.782Z,62.50
2023-04-20T01:29:08.143Z,62.90
2023-04-20T01:30:12.982Z,63.00
2023-04-20T01:31:16.422Z,63.20
2023-04-20T01:32:18.947Z,63.20
2023-04-20T01:33:22.282Z,63.00
2023-04-20T01:34:26.942Z,63.20
2023-04-20T01:35:30.483Z,63.10
2023-04-20T01:36:33.721Z,63.20
2023-04-20T01:37:37.658Z,63.30
2023-04-20T01:38:41.874Z,63.30
2023-04-20T01:39:45.882Z,63.50
2023-04-20T01:40:48.361Z,63.40
2023-04-20T01:41:51.809Z,63.60
2023-04-20T01:42:54.402Z,63.70
2023-04-20T01:43:59.243Z,63.80
2023-04-20T01:45:01.754Z,63.80
2023-04-20T01:46:06.091Z,64.00
2023-04-20T01:47:08.642Z,64.00
2023-04-20T01:48:12.374Z,63.80
2023-04-20T01:49:14.819Z,63.80
2023-04-20T01:50:18.435Z,64.00
2023-04-20T01:51:20.787Z,64.10
2023-04-20T01:52:24.280Z,64.20
2023-04-20T01:53:27.045Z,64.30
2023-04-20T01:54:31.812Z,64.40
2023-04-20T01:55:34.533Z,64.60
2023-04-20T01:56:37.892Z,64.70
2023-04-20T01:57:40.369Z,64.70
2023-04-20T01:58:44.221Z,64.60
2023-04-20T01:59:46.609Z,64.80
2023-04-20T02:00:50.125Z,65.00
2023-04-20T02:01:52.653Z,65.10
2023-04-20T02:02:56.129Z,65.30
2023-04-20T02:03:58.795Z,65.50
2023-04-20T02:05:02.360Z,65.70
2023-04-20T02:06:06.582Z,65.90
2023-04-20T02:07:09.057Z,65.90
2023-04-20T02:08:15.368Z,66.10
2023-04-20T02:09:17.939Z,66.40
2023-04-20T02:10:22.887Z,66.40
2023-04-20T02:11:25.283Z,66.70
2023-04-20T02:12:28.708Z,66.70
2023-04-20T02:13:31.349Z,66.80
2023-04-20T02:14:35.356Z,67.00
2023-04-20T02:15:37.938Z,67.40
2023-04-20T02:16:42.657Z,67.30
2023-04-20T02:17:45.356Z,67.30
2023-04-20T02:18:48.988Z,67.70
2023-04-20T02:19:51.404Z,67.90
2023-04-20T02:20:54.938Z,67.60
2023-04-20T02:21:57.387Z,67.80
2023-04-20T02:23:00.806Z,68.20
2023-04-20T02:24:03.932Z,68.40
2023-04-20T02:25:10.453Z,68.30
2023-04-20T02:26:14.259Z,68.20
2023-04-20T02:27:17.639Z,68.60
2023-04-20T02:28:19.985Z,68.70
2023-04-20T02:29:23.525Z,68.60
2023-04-20T02:30:25.882Z,68.50
2023-04-20T02:31:32.056Z,68.70
2023-04-20T02:32:35.148Z,68.80
2023-04-20T02:33:39.168Z,68.60
2023-04-20T02:34:41.489Z,68.80
2023-04-20T02:35:44.843Z,69.00
2023-04-20T02:36:47.444Z,69.10
2023-04-20T02:37:51.261Z,69.10
2023-04-20T02:38:53.762Z,69.20
2023-04-20T02:39:57.125Z,69.20
2023-04-20T02:41:01.984Z,69.20
2023-04-20T02:42:07.201Z,69.00
2023-04-20T02:43:09.723Z,69.10
2023-04-20T02:44:14.187Z,69.10
2023-04-20T02:45:16.629Z,68.90
2023-04-20T02:46:22.099Z,68.90
2023-04-20T02:47:24.756Z,68.90
2023-04-20T02:48:30.189Z,68.50
2023-04-20T02:49:33.156Z,68.40
2023-04-20T02:50:37.997Z,68.30
2023-04-20T02:51:53.323Z,68.40
2023-04-20T02:52:56.712Z,68.30
2023-04-20T02:53:59.533Z,68.40
2023-04-20T02:55:05.994Z,68.40
2023-04-20T02:56:08.472Z,68.30
2023-04-20T02:57:21.085Z,68.10
2023-04-20T02:58:23.501Z,68.10
2023-04-20T02:59:44.239Z,68.00
2023-04-20T03:00:52.085Z,68.10
2023-04-20T03:01:55.538Z,68.00
2023-04-20T03:03:00.677Z,67.90
2023-04-20T03:04:04.814Z,67.90
2023-04-20T03:05:10.580Z,67.80
2023-04-20T03:06:19.432Z,67.60
2023-04-20T03:07:27.873Z,67.80
2023-04-20T03:08:31.666Z,67.80
2023-04-20T03:09:38.758Z,68.00
2023-04-20T03:10:52.262Z,68.10
2023-04-20T03:11:56.050Z,68.10
2023-04-20T03:13:17.789Z,68.20
2023-04-20T03:14:27.105Z,68.10
2023-04-20T03:15:30.949Z,68.20
2023-04-20T03:16:38.601Z,68.30
2023-04-20T03:17:42.187Z,68.20
2023-04-20T03:18:45.650Z,68.10
2023-04-20T03:19:49.003Z,68.30
2023-04-20T03:20:51.634Z,68.40
2023-04-20T03:21:55.058Z,68.50
2023-04-20T03:22:57.486Z,68.50
2023-04-20T03:24:02.163Z,68.50
2023-04-20T03:25:06.489Z,68.50
2023-04-20T03:26:28.635Z,68.60
2023-04-20T03:27:52.419Z,68.60
2023-04-20T03:28:56.660Z,68.60
2023-04-20T03:30:02.295Z,68.70
2023-04-20T03:31:06.596Z,68.70
2023-04-20T03:32:10.032Z,68.60
2023-04-20T03:33:12.467Z,68.80
2023-04-20T03:34:15.861Z,68.90
2023-04-20T03:35:21.132Z,69.10
2023-04-20T03:36:25.100Z,69.20
2023-04-20T03:37:27.516Z,69.30
2023-04-20T03:38:32.078Z,69.30
2023-04-20T03:39:34.470Z,69.50
2023-04-20T03:40:38.173Z,69.50
2023-04-20T03:41:40.892Z,69.60
2023-04-20T03:42:44.272Z,69.80
2023-04-20T03:43:46.695Z,69.90
2023-04-20T03:44:51.729Z,70.40
2023-04-20T03:45:54.271Z,70.80
2023-04-20T03:46:57.677Z,70.80
2023-04-20T03:48:00.160Z,71.10
2023-04-20T03:49:03.969Z,71.30
2023-04-20T03:50:07.984Z,71.50
2023-04-20T03:51:11.421Z,71.50
2023-04-20T03:52:13.825Z,71.50
2023-04-20T03:53:17.132Z,71.50
2023-04-20T03:54:19.593Z,71.80
2023-04-20T03:55:23.059Z,72.10
2023-04-20T03:56:32.334Z,72.20
2023-04-20T03:57:35.994Z,72.30
2023-04-20T03:58:39.825Z,71.90
2023-04-20T03:59:50.394Z,72.40
2023-04-20T04:01:02.527Z,72.70
2023-04-20T04:02:07.603Z,72.60
2023-04-20T04:03:10.381Z,72.80
2023-04-20T04:04:14.231Z,72.50
2023-04-20T04:05:17.509Z,72.70
2023-04-20T04:06:20.938Z,72.80
2023-04-20T04:07:23.271Z,72.80
2023-04-20T04:08:26.928Z,72.90
2023-04-20T04:09:29.780Z,72.90
2023-04-20T04:10:33.118Z,73.00
2023-04-20T04:11:35.671Z,72.80
2023-04-20T04:12:39.157Z,72.50
2023-04-20T04:13:41.714Z,72.90
2023-04-20T04:14:46.114Z,73.30
2023-04-20T04:15:52.194Z,73.30
2023-04-20T04:16:56.135Z,73.30
2023-04-20T04:17:58.740Z,73.40
2023-04-20T04:19:02.127Z,73.70
2023-04-20T04:20:08.118Z,73.40
2023-04-20T04:21:11.714Z,73.30
2023-04-20T04:22:18.065Z,73.50
2023-04-20T04:23:38.657Z,73.50
2023-04-20T04:24:50.307Z,72.50
2023-04-20T04:25:57.313Z,73.30
2023-04-20T04:27:05.659Z,73.70
2023-04-20T04:28:12.689Z,73.90
2023-04-20T04:29:25.939Z,73.90
2023-04-20T04:30:29.646Z,73.90
2023-04-20T04:31:35.015Z,73.90
2023-04-20T04:32:44.749Z,74.00
2023-04-20T04:33:49.602Z,73.70
2023-04-20T04:35:01.333Z,73.70
2023-04-20T04:36:06.259Z,74.10
2023-04-20T04:37:10.060Z,74.10
2023-04-20T04:38:18.097Z,74.10
2023-04-20T04:39:24.383Z,74.20
2023-04-20T04:40:35.085Z,73.70
2023-04-20T04:41:40.536Z,74.20
2023-04-20T04:42:53.842Z,74.20
2023-04-20T04:43:59.473Z,73.80
2023-04-20T04:45:07.486Z,74.00
2023-04-20T04:46:14.593Z,74.10
2023-04-20T04:47:19.908Z,74.30
2023-04-20T04:48:23.797Z,74.20
2023-04-20T04:49:26.734Z,74.20
2023-04-20T04:50:30.321Z,74.10
2023-04-20T04:51:33.228Z,74.10
2023-04-20T04:52:36.645Z,74.20
2023-04-20T04:53:39.006Z,74.20
2023-04-20T04:54:42.359Z,74.30
2023-04-20T04:55:44.712Z,74.20
2023-04-20T04:56:48.000Z,74.40
2023-04-20T04:57:50.385Z,74.40
2023-04-20T04:58:53.801Z,74.50
2023-04-20T04:59:56.200Z,74.30
2023-04-20T05:00:59.520Z,74.50
2023-04-20T05:02:02.010Z,74.70
2023-04-20T05:03:06.915Z,74.70
2023-04-20T05:04:09.551Z,74.70
2023-04-20T05:05:13.533Z,74.70
2023-04-20T05:06:16.113Z,74.30
2023-04-20T05:07:19.935Z,74.50
2023-04-20T05:08:24.336Z,74.30
2023-04-20T05:09:33.289Z,73.90
2023-04-20T05:10:36.852Z,74.30
2023-04-20T05:11:39.281Z,74.50
2023-04-20T05:12:42.594Z,74.70
2023-04-20T05:13:44.980Z,74.70
2023-04-20T05:14:48.695Z,75.20
2023-04-20T05:15:50.956Z,74.60
2023-04-20T05:16:54.302Z,74.00
2023-04-20T05:17:56.815Z,73.90
2023-04-20T05:19:01.507Z,73.50
2023-04-20T05:20:06.384Z,73.00
2023-04-20T05:21:09.774Z,73.30
2023-04-20T05:22:12.045Z,72.80
2023-04-20T05:23:15.564Z,72.60
2023-04-20T05:24:19.537Z,72.20
2023-04-20T05:25:23.201Z,70.90
2023-04-20T05:26:25.982Z,70.60
2023-04-20T05:27:29.384Z,70.50
2023-04-20T05:28:33.057Z,70.70
2023-04-20T05:29:36.575Z,70.50
2023-04-20T05:30:39.061Z,70.40
2023-04-20T05:31:42.538Z,70.10
2023-04-20T05:32:44.976Z,70.10
2023-04-20T05:33:48.469Z,69.70
2023-04-20T05:34:52.158Z,69.70
2023-04-20T05:35:58.080Z,69.60
2023-04-20T05:37:00.781Z,69.60
2023-04-20T05:38:06.352Z,69.50
2023-04-20T05:39:10.484Z,69.40
2023-04-20T05:40:14.050Z,69.30
2023-04-20T05:41:16.363Z,69.20
2023-04-20T05:42:19.676Z,69.10
2023-04-20T05:43:22.006Z,68.90
2023-04-20T05:44:25.324Z,69.50
2023-04-20T05:45:28.822Z,69.20
2023-04-20T05:46:31.229Z,69.50
2023-04-20T05:47:34.873Z,69.50
2023-04-20T05:48:37.224Z,69.50
2023-04-20T05:49:40.735Z,69.80
2023-04-20T05:50:44.569Z,69.60
2023-04-20T05:51:47.902Z,69.70
2023-04-20T05:52:50.381Z,69.80
2023-04-20T05:53:53.737Z,69.80
2023-04-20T05:54:56.061Z,69.30
2023-04-20T05:55:59.409Z,69.50
2023-04-20T05:57:02.941Z,69.80
2023-04-20T05:58:05.905Z,69.60
2023-04-20T05:59:09.808Z,69.40
2023-04-20T06:00:15.299Z,69.40
2023-04-20T06:01:18.716Z,69.00
2023-04-20T06:02:21.369Z,69.30
2023-04-20T06:03:25.028Z,69.60
2023-04-20T06:04:28.702Z,69.40
2023-04-20T06:05:31.418Z,69.60
2023-04-20T06:06:36.139Z,69.80
2023-04-20T06:07:38.969Z,70.00
2023-04-20T06:08:42.359Z,69.50
2023-04-20T06:09:45.129Z,70.10
2023-04-20T06:10:48.516Z,70.10
2023-04-20T06:11:50.803Z,70.20
2023-04-20T06:12:54.129Z,70.10
2023-04-20T06:13:56.458Z,70.10
2023-04-20T06:15:00.137Z,70.40
2023-04-20T06:16:02.566Z,70.20
2023-04-20T06:17:06.176Z,70.40
2023-04-20T06:18:08.662Z,70.70
2023-04-20T06:19:12.060Z,70.50
2023-04-20T06:20:14.431Z,70.70
2023-04-20T06:21:18.083Z,70.60
2023-04-20T06:22:22.009Z,70.90
2023-04-20T06:23:25.345Z,71.10
2023-04-20T06:24:28.009Z,70.90
2023-04-20T06:25:31.605Z,70.70
2023-04-20T06:26:33.948Z,70.40
2023-04-20T06:27:37.442Z,70.50
2023-04-20T06:28:40.799Z,70.80
2023-04-20T06:29:43.121Z,71.10
2023-04-20T06:30:46.796Z,70.70
2023-04-20T06:31:49.175Z,70.90
2023-04-20T06:32:52.805Z,70.80
2023-04-20T06:33:56.180Z,70.80
2023-04-20T06:34:58.458Z,70.80
2023-04-20T06:36:01.817Z,70.80
2023-04-20T06:37:08.403Z,70.80
2023-04-20T06:38:12.439Z,70.80
2023-04-20T06:39:18.457Z,70.60
2023-04-20T06:40:21.850Z,70.80
2023-04-20T06:41:24.207Z,70.80
2023-04-20T06:42:27.546Z,71.00
2023-04-20T06:43:32.658Z,70.90
2023-04-20T06:44:35.977Z,70.80
2023-04-20T06:45:38.377Z,70.90
2023-04-20T06:46:41.859Z,70.70
2023-04-20T06:47:44.271Z,70.90
2023-04-20T06:48:47.614Z,71.20
2023-04-20T06:49:49.940Z,71.30
2023-04-20T06:50:53.288Z,70.90
2023-04-20T06:51:56.603Z,70.60
2023-04-20T06:52:59.014Z,70.70
2023-04-20T06:54:03.649Z,70.50
2023-04-20T06:55:06.723Z,70.40
2023-04-20T06:56:11.423Z,70.50
2023-04-20T06:57:13.737Z,70.20
2023-04-20T06:58:17.016Z,70.60
2023-04-20T06:59:19.689Z,70.50
2023-04-20T07:00:23.496Z,70.70
2023-04-20T07:01:26.023Z,70.30
2023-04-20T07:02:29.682Z,70.40
2023-04-20T07:03:32.200Z,70.50
2023-04-20T07:04:35.626Z,71.30
2023-04-20T07:05:39.198Z,71.70
2023-04-20T07:06:41.512Z,71.70
2023-04-20T07:07:45.659Z,72.00
2023-04-20T07:08:48.066Z,72.20
2023-04-20T07:09:53.025Z,72.70
2023-04-20T07:10:56.297Z,72.20
2023-04-20T07:11:58.879Z,73.00
2023-04-20T07:13:02.160Z,73.10
2023-04-20T07:14:05.526Z,73.60
2023-04-20T07:15:09.586Z,72.50
2023-04-20T07:16:13.007Z,72.50
2023-04-20T07:17:15.384Z,72.90
2023-04-20T07:18:18.751Z,73.40
2023-04-20T07:19:21.395Z,73.50
2023-04-20T07:20:25.127Z,74.10
2023-04-20T07:21:27.423Z,74.50
2023-04-20T07:22:30.771Z,75.00
2023-04-20T07:23:34.072Z,75.30
2023-04-20T07:24:36.447Z,75.60
2023-04-20T07:25:41.181Z,75.20
2023-04-20T07:26:43.578Z,75.40
2023-04-20T07:27:46.908Z,74.90
2023-04-20T07:28:49.207Z,74.90
2023-04-20T07:29:52.589Z,75.30
2023-04-20T07:30:55.965Z,76.20
2023-04-20T07:31:58.293Z,76.00
2023-04-20T07:33:01.690Z,76.20
2023-04-20T07:34:04.085Z,76.70
2023-04-20T07:35:08.762Z,77.10
2023-04-20T07:36:12.202Z,76.50
2023-04-20T07:37:14.663Z,77.10
2023-04-20T07:38:18.138Z,76.90
2023-04-20T07:39:20.602Z,77.30
2023-04-20T07:40:24.403Z,76.90
2023-04-20T07:41:28.303Z,76.90
2023-04-20T07:42:32.970Z,77.80
2023-04-20T07:43:36.458Z,77.80
2023-04-20T07:44:38.820Z,78.30
2023-04-20T07:45:42.742Z,78.40
2023-04-20T07:46:45.110Z,78.50
2023-04-20T07:47:51.640Z,78.70
2023-04-20T07:48:54.275Z,79.40
2023-04-20T07:49:58.340Z,79.10
2023-04-20T07:51:02.025Z,79.50
2023-04-20T07:52:15.866Z,79.20
2023-04-20T07:53:20.469Z,79.20
2023-04-20T07:54:23.740Z,79.00
2023-04-20T07:55:26.112Z,79.70
2023-04-20T07:56:32.137Z,79.20
2023-04-20T07:57:35.366Z,80.10
2023-04-20T07:58:40.679Z,80.30
2023-04-20T07:59:46.496Z,80.40
2023-04-20T08:00:49.039Z,78.80
2023-04-20T08:01:53.442Z,79.90
2023-04-20T08:02:57.666Z,78.90
2023-04-20T08:04:01.173Z,78.80
2023-04-20T08:05:05.236Z,79.90
2023-04-20T08:06:08.044Z,79.90
2023-04-20T08:07:11.689Z,80.20
2023-04-20T08:08:15.076Z,80.60
2023-04-20T08:09:17.580Z,80.70
2023-04-20T08:10:21.180Z,81.00
2023-04-20T08:11:25.087Z,80.90
2023-04-20T08:12:29.949Z,81.10
2023-04-20T08:13:33.344Z,81.50
2023-04-20T08:14:35.698Z,81.70
2023-04-20T08:15:39.138Z,81.40
2023-04-20T08:16:41.800Z,80.20
2023-04-20T08:17:45.116Z,81.20
2023-04-20T08:18:48.426Z,81.10
2023-04-20T08:19:50.879Z,81.60
2023-04-20T08:20:54.298Z,81.80
2023-04-20T08:21:56.718Z,81.00
2023-04-20T08:22:59.984Z,81.40
2023-04-20T08:24:02.332Z,81.70
2023-04-20T08:25:06.367Z,81.70
2023-04-20T08:26:09.892Z,81.20
2023-04-20T08:27:12.387Z,81.60
2023-04-20T08:28:29.484Z,81.90
2023-04-20T08:29:36.658Z,82.00
2023-04-20T08:30:41.890Z,82.20
2023-04-20T08:31:44.403Z,82.50
2023-04-20T08:32:47.767Z,82.20
2023-04-20T08:33:50.330Z,81.40
2023-04-20T08:34:54.313Z,82.30
2023-04-20T08:35:56.665Z,82.30
2023-04-20T08:37:00.081Z,82.60
2023-04-20T08:38:03.494Z,82.40
2023-04-20T08:39:10.399Z,82.20
2023-04-20T08:40:14.480Z,82.30
2023-04-20T08:41:16.859Z,82.20
2023-04-20T08:42:21.086Z,82.60
2023-04-20T08:43:25.858Z,82.50
2023-04-20T08:44:29.426Z,82.50
2023-04-20T08:45:32.091Z,82.20
2023-04-20T08:46:35.909Z,81.80
2023-04-20T08:47:40.658Z,82.20
2023-04-20T08:48:46.831Z,82.50
2023-04-20T08:49:52.219Z,82.60
2023-04-20T08:50:56.953Z,82.40
2023-04-20T08:51:59.318Z,81.80
2023-04-20T08:53:03.439Z,82.10
2023-04-20T08:54:06.953Z,82.20
2023-04-20T08:55:10.792Z,82.10
2023-04-20T08:56:13.144Z,82.00
2023-04-20T08:57:16.607Z,81.20
2023-04-20T08:58:19.072Z,81.50
2023-04-20T08:59:24.079Z,81.60
2023-04-20T09:00:26.508Z,81.70
2023-04-20T09:01:35.627Z,81.50
2023-04-20T09:02:51.754Z,81.20
2023-04-20T09:03:54.668Z,81.10
2023-04-20T09:05:06.302Z,81.30
2023-04-20T09:06:19.781Z,81.30
2023-04-20T09:07:23.366Z,81.50
2023-04-20T09:08:37.505Z,81.20
2023-04-20T09:09:41.252Z,81.40
2023-04-20T09:10:46.000Z,81.50
2023-04-20T09:12:00.307Z,81.50
2023-04-20T09:13:03.666Z,81.40
2023-04-20T09:14:10.048Z,80.90
2023-04-20T09:15:27.240Z,80.70
2023-04-20T09:16:29.882Z,80.60
2023-04-20T09:17:35.094Z,81.00
2023-04-20T09:18:38.280Z,81.20
2023-04-20T09:19:44.460Z,80.80
2023-04-20T09:20:46.873Z,80.50
2023-04-20T09:21:51.034Z,81.00
2023-04-20T09:22:54.354Z,80.50
2023-04-20T09:24:00.037Z,80.80
2023-04-20T09:25:15.285Z,81.10
2023-04-20T09:26:18.911Z,81.10
2023-04-20T09:27:23.471Z,81.20
2023-04-20T09:28:38.972Z,81.10
2023-04-20T09:29:42.454Z,80.30
2023-04-20T09:30:48.768Z,80.40
2023-04-20T09:31:53.122Z,80.50
2023-04-20T09:33:03.581Z,80.80
2023-04-20T09:34:07.302Z,80.60
2023-04-20T09:35:10.269Z,80.30
2023-04-20T09:36:13.676Z,79.80
2023-04-20T09:37:17.862Z,80.10
2023-04-20T09:38:28.142Z,80.10
2023-04-20T09:39:34.112Z,80.00
2023-04-20T09:40:36.721Z,80.10
2023-04-20T09:41:42.121Z,79.90
2023-04-20T09:42:44.824Z,79.20
2023-04-20T09:43:48.434Z,78.80
2023-04-20T09:44:52.741Z,78.60
2023-04-20T09:45:56.880Z,77.80
2023-04-20T09:47:00.679Z,77.40
2023-04-20T09:48:07.643Z,76.70
2023-04-20T09:49:12.509Z,76.50
2023-04-20T09:50:26.870Z,76.00
2023-04-20T09:51:35.620Z,75.50
2023-04-20T09:52:38.344Z,75.00
2023-04-20T09:53:42.387Z,74.80
2023-04-20T09:54:46.495Z,74.50
2023-04-20T09:55:51.258Z,74.10
2023-04-20T09:56:56.889Z,73.70
2023-04-20T09:58:01.959Z,73.50
2023-04-20T09:59:05.590Z,72.70
2023-04-20T10:00:10.883Z,72.70
2023-04-20T10:01:15.928Z,72.60
2023-04-20T10:02:19.457Z,72.60
2023-04-20T10:03:23.118Z,72.60
2023-04-20T10:04:26.894Z,72.90
2023-04-20T10:05:36.898Z,72.90
2023-04-20T10:06:40.253Z,72.60
2023-04-20T10:07:42.867Z,72.30
2023-04-20T10:08:46.262Z,72.10
2023-04-20T10:09:48.612Z,71.70
2023-04-20T10:10:52.850Z,71.40
2023-04-20T10:12:07.651Z,71.20
2023-04-20T10:13:10.024Z,70.90
2023-04-20T10:14:19.812Z,70.80
2023-04-20T10:15:23.995Z,70.80
2023-04-20T10:16:28.987Z,70.70
2023-04-20T10:17:32.434Z,70.80
2023-04-20T10:18:36.099Z,70.90
2023-04-20T10:19:40.692Z,70.90
2023-04-20T10:20:44.049Z,70.70
2023-04-20T10:21:49.807Z,70.60
2023-04-20T10:22:53.412Z,70.20
2023-04-20T10:23:58.966Z,69.90
2023-04-20T10:25:03.857Z,69.90
2023-04-20T10:26:06.326Z,69.80
2023-04-20T10:27:19.287Z,70.30
2023-04-20T10:28:21.970Z,70.60
2023-04-20T10:29:26.338Z,70.30
2023-04-20T10:30:29.697Z,70.60
2023-04-20T10:31:39.892Z,70.80
2023-04-20T10:32:42.502Z,70.90
2023-04-20T10:33:56.681Z,70.90
2023-04-20T10:35:04.410Z,71.10
2023-04-20T10:36:08.078Z,71.30
2023-04-20T10:37:11.911Z,71.40
2023-04-20T10:38:16.158Z,71.60
2023-04-20T10:39:22.716Z,71.20
2023-04-20T10:40:27.148Z,71.50
2023-04-20T10:41:31.143Z,71.80
2023-04-20T10:42:43.499Z,71.90
2023-04-20T10:43:46.821Z,72.00
2023-04-20T10:44:49.423Z,72.00
2023-04-20T10:45:53.436Z,72.20
2023-04-20T10:46:57.687Z,72.20
2023-04-20T10:48:09.650Z,71.60
2023-04-20T10:49:12.470Z,71.60
2023-04-20T10:50:18.190Z,71.40
2023-04-20T10:51:21.116Z,71.20
2023-04-20T10:52:36.009Z,71.00
2023-04-20T10:53:38.323Z,71.00
2023-04-20T10:54:42.221Z,70.50
2023-04-20T10:55:44.665Z,70.50
2023-04-20T10:56:49.915Z,70.30
2023-04-20T10:57:53.254Z,70.10
2023-04-20T10:59:06.642Z,70.10
2023-04-20T11:00:17.724Z,70.20
2023-04-20T11:01:21.738Z,70.40
2023-04-20T11:02:28.136Z,70.30
2023-04-20T11:03:32.853Z,70.30
2023-04-20T11:04:37.230Z,70.20
2023-04-20T11:05:39.617Z,70.40
2023-04-20T11:06:46.780Z,70.30
2023-04-20T11:07:52.791Z,70.20
2023-04-20T11:08:56.319Z,69.90
2023-04-20T11:09:58.645Z,69.90
2023-04-20T11:11:02.065Z,69.80
2023-04-20T11:12:07.724Z,69.70
2023-04-20T11:13:22.278Z,69.70
2023-04-20T11:14:25.650Z,69.60
2023-04-20T11:15:33.573Z,69.60
2023-04-20T11:16:49.572Z,69.50
2023-04-20T11:17:55.214Z,69.30
2023-04-20T11:18:59.148Z,69.40
2023-04-20T11:20:15.590Z,69.00
2023-04-20T11:21:18.007Z,69.20
2023-04-20T11:22:23.720Z,69.20
2023-04-20T11:23:36.999Z,69.50
2023-04-20T11:24:41.282Z,69.80
2023-04-20T11:25:51.159Z,69.90
2023-04-20T11:26:56.299Z,70.20
2023-04-20T11:28:07.802Z,70.00
2023-04-20T11:29:11.549Z,70.50
2023-04-20T11:30:15.270Z,70.60
2023-04-20T11:31:18.396Z,71.00
2023-04-20T11:32:22.170Z,70.70
2023-04-20T11:33:30.680Z,70.80
2023-04-20T11:34:35.159Z,70.90
2023-04-20T11:35:38.035Z,70.70
2023-04-20T11:36:41.750Z,70.30
2023-04-20T11:37:48.865Z,70.20
2023-04-20T11:38:53.040Z,70.60
2023-04-20T11:40:04.580Z,70.80
2023-04-20T11:41:08.048Z,71.50
2023-04-20T11:42:11.430Z,72.00
2023-04-20T11:43:13.836Z,72.10
2023-04-20T11:44:17.415Z,72.10
2023-04-20T11:45:19.801Z,72.40
2023-04-20T11:46:23.228Z,72.10
2023-04-20T11:47:25.710Z,72.00
2023-04-20T11:48:32.687Z,71.90
2023-04-20T11:49:36.068Z,71.30
2023-04-20T11:50:39.713Z,70.30
2023-04-20T11:51:44.614Z,69.00
2023-04-20T11:52:47.968Z,68.00
2023-04-20T11:53:50.643Z,66.80
2023-04-20T11:54:53.983Z,66.40
2023-04-20T11:55:56.315Z,65.90
2023-04-20T11:57:00.049Z,65.60
2023-04-20T11:58:04.049Z,65.30
2023-04-20T11:59:07.455Z,64.90
2023-04-20T12:00:11.088Z,64.90
2023-04-20T12:01:18.520Z,64.20
2023-04-20T12:02:21.004Z,64.20
2023-04-20T12:03:24.619Z,64.30
2023-04-20T12:04:29.600Z,64.20
2023-04-20T12:05:32.347Z,64.30
2023-04-20T12:06:35.732Z,64.20
2023-04-20T12:07:39.291Z,64.50
2023-04-20T12:08:43.201Z,64.70
2023-04-20T12:09:45.564Z,65.00
2023-04-20T12:10:48.960Z,65.10
2023-04-20T12:11:52.279Z,65.50
2023-04-20T12:12:54.931Z,65.70
2023-04-20T12:13:58.497Z,65.60
2023-04-20T12:15:00.971Z,65.70
2023-04-20T12:16:04.395Z,66.00
2023-04-20T12:17:07.863Z,66.20
2023-04-20T12:18:10.918Z,66.40
2023-04-20T12:19:14.474Z,66.70
2023-04-20T12:20:18.384Z,66.70
2023-04-20T12:21:21.689Z,66.70
2023-04-20T12:22:24.094Z,66.90
2023-04-20T12:23:27.477Z,67.10
2023-04-20T12:24:29.928Z,67.50
2023-04-20T12:25:33.273Z,67.70
2023-04-20T12:26:38.668Z,67.70
2023-04-20T12:27:42.406Z,67.70
2023-04-20T12:28:45.373Z,67.60
2023-04-20T12:29:48.844Z,67.20
2023-04-20T12:30:52.229Z,67.30
2023-04-20T12:31:54.702Z,67.40
2023-04-20T12:32:58.190Z,67.50
2023-04-20T12:34:01.916Z,67.60
2023-04-20T12:35:04.877Z,67.40
2023-04-20T12:36:10.304Z,67.40
2023-04-20T12:37:12.763Z,67.30
2023-04-20T12:38:16.163Z,67.40
2023-04-20T12:39:18.652Z,67.50
2023-04-20T12:40:22.410Z,67.30
2023-04-20T12:41:26.076Z,67.10
2023-04-20T12:42:28.451Z,67.00
2023-04-20T12:43:31.910Z,67.00
2023-04-20T12:44:34.333Z,67.20
2023-04-20T12:45:37.696Z,67.10
2023-04-20T12:46:40.223Z,67.30
2023-04-20T12:47:43.614Z,67.30
2023-04-20T12:48:46.133Z,67.20
2023-04-20T12:49:49.540Z,67.50
2023-04-20T12:50:53.106Z,67.80
2023-04-20T12:51:56.862Z,67.80
2023-04-20T12:53:00.241Z,68.20
2023-04-20T12:54:03.061Z,68.30
2023-04-20T12:55:07.369Z,68.50
2023-04-20T12:56:11.189Z,68.30
2023-04-20T12:57:14.587Z,68.80
2023-04-20T12:58:18.125Z,68.90
2023-04-20T12:59:20.626Z,69.00
2023-04-20T13:00:24.121Z,69.30
2023-04-20T13:01:26.890Z,69.30
2023-04-20T13:02:31.320Z,69.40
2023-04-20T13:03:34.039Z,69.50
2023-04-20T13:04:37.694Z,69.60
2023-04-20T13:05:41.091Z,69.80
2023-04-20T13:06:44.308Z,69.60
2023-04-20T13:07:49.138Z,69.80
2023-04-20T13:08:51.691Z,70.10
2023-04-20T13:09:55.069Z,70.20
2023-04-20T13:10:57.438Z,70.20
2023-04-20T13:12:01.354Z,70.40
2023-04-20T13:13:04.730Z,70.30
2023-04-20T13:14:07.050Z,70.30
2023-04-20T13:15:13.030Z,70.20
2023-04-20T13:16:17.508Z,69.90
2023-04-20T13:17:21.012Z,69.50
2023-04-20T13:18:24.489Z,69.20
2023-04-20T13:19:27.967Z,69.20
2023-04-20T13:20:33.500Z,69.20
2023-04-20T13:21:35.895Z,69.00
2023-04-20T13:22:46.997Z,68.80
2023-04-20T13:24:01.912Z,68.60
2023-04-20T13:25:06.297Z,68.50
2023-04-20T13:26:09.114Z,68.20
2023-04-20T13:27:12.714Z,68.10
2023-04-20T13:28:16.200Z,67.90
2023-04-20T13:29:18.878Z,67.90
2023-04-20T13:30:24.200Z,67.60
2023-04-20T13:31:28.096Z,67.70
2023-04-20T13:32:30.510Z,67.60
2023-04-20T13:33:34.406Z,67.50
2023-04-20T13:34:36.953Z,67.50
2023-04-20T13:35:41.303Z,67.50
2023-04-20T13:36:44.960Z,67.00
2023-04-20T13:37:47.485Z,66.80
2023-04-20T13:38:54.531Z,66.70
2023-04-20T13:39:59.368Z,66.70
2023-04-20T13:41:01.836Z,66.50
2023-04-20T13:42:05.380Z,66.30
2023-04-20T13:43:07.825Z,66.00
2023-04-20T13:44:15.963Z,65.60
2023-04-20T13:45:18.799Z,64.90
2023-04-20T13:46:22.496Z,64.70
2023-04-20T13:47:25.462Z,64.80
2023-04-20T13:48:28.861Z,64.60
2023-04-20T13:49:31.160Z,64.40